Terminal Aerodrome Forecast
Issued by NWS

Home | Current Version | Previous Version | Text Only | Print | Product List | Glossary On
Versions: 1 2 3 4 5 6 7 8 9 10 11 12 13 14
383
FTUS46 KPDT 040520
TAFPSC
TAF
KPSC 040520Z 0406/0506 30015KT P6SM SCT120 BKN150
     FM040800 23008KT P6SM SCT120 BKN150
     FM041800 34006KT P6SM BKN120
     FM050300 31008KT P6SM VCSH BKN080=

USA.gov is the U.S. government's official web portal to all federal, state and local government web resources and services.